createdAt,value
2022-10-24T00:00:40.570Z,11.32
2022-10-24T00:04:40.577Z,11.07
2022-10-24T00:08:39.610Z,11.2
2022-10-24T00:12:40.980Z,12.05
2022-10-24T00:16:40.456Z,12.3
2022-10-24T00:20:40.481Z,12.05
2022-10-24T00:24:39.377Z,12.7
2022-10-24T00:28:40.861Z,12.68
2022-10-24T00:32:40.424Z,11.55
2022-10-24T00:36:40.452Z,13.15
2022-10-24T00:40:40.681Z,12.45
2022-10-24T00:44:40.443Z,12.8
2022-10-24T00:48:40.897Z,14.35
2022-10-24T00:52:41.214Z,13.02
2022-10-24T00:56:40.475Z,13.15
2022-10-24T01:00:40.515Z,15.38
2022-10-24T01:04:40.513Z,13.48
2022-10-24T01:08:40.533Z,13.48
2022-10-24T01:12:40.775Z,13.3
2022-10-24T01:16:40.898Z,14.57
2022-10-24T01:20:40.494Z,14.25
2022-10-24T01:24:40.792Z,13.05
2022-10-24T01:28:40.415Z,12.55
2022-10-24T01:32:40.417Z,14.27
2022-10-24T01:36:40.561Z,12.9
2022-10-24T01:40:40.422Z,12.9
2022-10-24T01:44:40.564Z,12.48
2022-10-24T01:48:40.428Z,12.73
2022-10-24T01:52:40.415Z,13.32
2022-10-24T01:56:40.628Z,14.1
2022-10-24T02:00:40.638Z,12.52
2022-10-24T02:04:40.878Z,12.8
2022-10-24T02:08:40.468Z,13.52
2022-10-24T02:12:40.481Z,12.82
2022-10-24T02:16:40.653Z,14.05
2022-10-24T02:20:39.577Z,13.35
2022-10-24T02:24:40.786Z,14.57
2022-10-24T02:28:40.468Z,14.43
2022-10-24T02:32:40.442Z,14.13
2022-10-24T02:36:40.574Z,15.3
2022-10-24T02:40:41.106Z,14.8
2022-10-24T02:44:40.027Z,14.77
2022-10-24T02:48:41.128Z,14.48
2022-10-24T02:52:40.508Z,16.15
2022-10-24T02:56:40.606Z,15.15
2022-10-24T03:00:41.254Z,14.3
2022-10-24T03:04:40.483Z,14.52
2022-10-24T03:08:40.411Z,15.43
2022-10-24T03:12:40.433Z,15.3
2022-10-24T03:16:40.477Z,16.17
2022-10-24T03:20:40.423Z,15.2
2022-10-24T03:24:44.367Z,15.95
2022-10-24T03:28:40.427Z,17.3
2022-10-24T03:32:40.999Z,16.95
2022-10-24T03:36:40.535Z,16.92
2022-10-24T03:40:41.045Z,15.85
2022-10-24T03:44:40.421Z,18.12
2022-10-24T03:48:40.432Z,18.15
2022-10-24T03:52:40.655Z,17.27
2022-10-24T03:56:40.230Z,18.35
2022-10-24T04:00:40.717Z,17.85
2022-10-24T04:04:40.602Z,18.85
2022-10-24T04:08:40.973Z,18.08
2022-10-24T04:12:40.674Z,19.87
2022-10-24T04:16:40.591Z,18.65
2022-10-24T04:20:40.566Z,18.65
2022-10-24T04:24:40.946Z,18.48
2022-10-24T04:28:41.163Z,19.77
2022-10-24T04:32:40.454Z,17.1
2022-10-24T04:36:40.402Z,18.55
2022-10-24T04:40:40.706Z,19.9
2022-10-24T04:44:39.709Z,20.35
2022-10-24T04:48:40.944Z,19.48
2022-10-24T04:52:40.434Z,18.4
2022-10-24T04:56:40.619Z,19.42
2022-10-24T05:00:40.490Z,18
2022-10-24T05:04:41.272Z,18.17
2022-10-24T05:08:40.454Z,18.4
2022-10-24T05:12:39.626Z,17.62
2022-10-24T05:16:40.516Z,18.83
2022-10-24T05:24:40.409Z,17.4
2022-10-24T05:28:40.425Z,17.3
2022-10-24T05:32:40.795Z,16.25
2022-10-24T05:36:40.786Z,16.27
2022-10-24T05:40:40.900Z,15.85
2022-10-24T05:44:40.415Z,16.77
2022-10-24T05:48:40.573Z,16.2
2022-10-24T05:52:43.248Z,18.77
2022-10-24T05:56:40.612Z,18.05
2022-10-24T06:00:40.396Z,18.92
2022-10-24T06:04:40.417Z,16.87
2022-10-24T06:08:40.721Z,18.7
2022-10-24T06:12:39.815Z,18.65
2022-10-24T06:16:40.858Z,19.42
2022-10-24T06:20:40.788Z,19.83
2022-10-24T06:24:40.433Z,19.08
2022-10-24T06:28:40.487Z,18.48
2022-10-24T06:32:43.795Z,17.08
2022-10-24T06:40:40.808Z,17.33
2022-10-24T06:44:40.450Z,13.8
2022-10-24T06:48:40.515Z,13.88
2022-10-24T06:52:40.294Z,11.63
2022-10-24T06:56:40.449Z,9.7
2022-10-24T07:00:40.385Z,10.23
2022-10-24T07:04:40.443Z,9.02
2022-10-24T07:08:40.635Z,7.95
2022-10-24T07:12:40.474Z,8.23
2022-10-24T07:16:40.600Z,7.5
2022-10-24T07:20:40.522Z,7.3
2022-10-24T07:24:40.296Z,7.53
2022-10-24T07:28:40.823Z,6.37
2022-10-24T07:32:40.155Z,5.5
2022-10-24T07:36:43.877Z,6.9
2022-10-24T07:40:40.841Z,6.87
2022-10-24T07:44:40.313Z,5.72
2022-10-24T07:48:40.316Z,5.07
2022-10-24T07:52:40.700Z,5.05
2022-10-24T07:56:40.828Z,5.87
2022-10-24T08:00:45.045Z,5.1
2022-10-24T08:04:40.426Z,5.18
2022-10-24T08:08:41.059Z,4.62
2022-10-24T08:12:41.125Z,6.2
2022-10-24T08:16:40.444Z,5.1
2022-10-24T08:20:40.528Z,4.4
2022-10-24T08:24:40.963Z,4.7
2022-10-24T08:28:40.461Z,5.45
2022-10-24T08:32:40.502Z,4.93
2022-10-24T08:36:40.536Z,5.3
2022-10-24T08:40:40.532Z,4.97
2022-10-24T08:44:41.115Z,5.05
2022-10-24T08:48:40.375Z,5.07
2022-10-24T08:52:39.978Z,5.47
2022-10-24T08:56:40.535Z,4.97
2022-10-24T09:00:40.490Z,4.72
2022-10-24T09:04:40.685Z,4.22
2022-10-24T09:08:40.480Z,4.1
2022-10-24T09:12:41.005Z,4.05
2022-10-24T09:16:40.518Z,5.65
2022-10-24T09:20:41.294Z,3.92
2022-10-24T09:24:40.797Z,4.22
2022-10-24T09:28:40.696Z,4.62
2022-10-24T09:32:40.788Z,3.5
2022-10-24T09:36:40.827Z,3.65
2022-10-24T09:40:40.619Z,4.12
2022-10-24T09:44:40.584Z,4.3
2022-10-24T09:48:41.155Z,3.97
2022-10-24T09:52:40.589Z,3.9
2022-10-24T09:56:40.529Z,3.12
2022-10-24T10:00:40.578Z,3.83
2022-10-24T10:04:41.019Z,3.6
2022-10-24T10:08:40.520Z,3.83
2022-10-24T10:12:40.654Z,3
2022-10-24T10:16:40.544Z,4.68
2022-10-24T10:20:39.420Z,3.67
2022-10-24T10:24:40.870Z,3.22
2022-10-24T10:28:40.773Z,3.45
2022-10-24T10:32:40.463Z,4.43
2022-10-24T10:36:39.613Z,4.07
2022-10-24T10:40:40.596Z,3.3
2022-10-24T10:44:40.801Z,3.58
2022-10-24T10:48:40.464Z,3.28
2022-10-24T10:52:40.267Z,3.5
2022-10-24T10:56:40.360Z,2.85
2022-10-24T11:00:40.694Z,3.9
2022-10-24T11:04:40.414Z,2.97
2022-10-24T11:08:40.551Z,3.6
2022-10-24T11:12:40.065Z,3.05
2022-10-24T11:16:40.541Z,3.47
2022-10-24T11:20:41.138Z,3.83
2022-10-24T11:24:40.482Z,3.2
2022-10-24T11:28:40.418Z,3.35
2022-10-24T11:32:40.223Z,3.42
2022-10-24T11:36:41.046Z,3.15
2022-10-24T11:40:40.569Z,2.9
2022-10-24T11:44:40.465Z,4.4
2022-10-24T11:48:40.633Z,3.55
2022-10-24T11:52:40.028Z,3.62
2022-10-24T11:56:40.405Z,3.53
2022-10-24T12:00:40.929Z,3
2022-10-24T12:04:40.978Z,3.62
2022-10-24T12:08:41.095Z,2.8
2022-10-24T12:12:40.163Z,2.83
2022-10-24T12:16:41.040Z,4.32
2022-10-24T12:20:40.453Z,4.03
2022-10-24T12:24:40.443Z,3.4
2022-10-24T12:28:40.985Z,3.03
2022-10-24T12:32:40.480Z,3.33
2022-10-24T12:36:41.199Z,3.42
2022-10-24T12:40:40.455Z,3.83
2022-10-24T12:44:40.546Z,4.75
2022-10-24T12:48:40.599Z,3.95
2022-10-24T12:52:39.711Z,3.87
2022-10-24T12:56:43.491Z,5.12
2022-10-24T13:00:40.534Z,5.07
2022-10-24T13:04:40.498Z,5.35
2022-10-24T13:08:40.478Z,4.37
2022-10-24T13:12:40.406Z,3.95
2022-10-24T13:16:40.746Z,4.1
2022-10-24T13:20:40.524Z,3.83
2022-10-24T13:24:40.615Z,3.85
2022-10-24T13:28:40.408Z,3.95
2022-10-24T13:32:40.541Z,4.47
2022-10-24T13:36:39.460Z,4.43
2022-10-24T13:40:40.678Z,3.67
2022-10-24T13:44:40.468Z,3.55
2022-10-24T13:48:40.507Z,4.62
2022-10-24T13:52:40.500Z,3.4
2022-10-24T13:56:39.972Z,2.7
2022-10-24T14:00:40.705Z,3.6
2022-10-24T14:04:40.824Z,3.35
2022-10-24T14:08:40.488Z,3.2
2022-10-24T14:12:40.538Z,3.08
2022-10-24T14:16:40.614Z,4.4
2022-10-24T14:20:40.601Z,3.5
2022-10-24T14:24:40.507Z,3.4
2022-10-24T14:28:40.648Z,2.53
2022-10-24T14:32:40.426Z,3.12
2022-10-24T14:36:40.829Z,2.9
2022-10-24T14:40:40.674Z,2
2022-10-24T14:44:40.502Z,2.5
2022-10-24T14:48:40.451Z,2.1
2022-10-24T14:52:40.469Z,2.12
2022-10-24T14:56:40.576Z,1.62
2022-10-24T15:00:40.729Z,1.35
2022-10-24T15:04:40.462Z,1.75
2022-10-24T15:12:40.732Z,1.2
2022-10-24T15:16:40.538Z,0.95
2022-10-24T15:20:40.671Z,1.45
2022-10-24T15:24:44.159Z,1.08
2022-10-24T15:28:40.511Z,0.9
2022-10-24T15:32:40.552Z,0.95
2022-10-24T15:36:39.518Z,1
2022-10-24T15:40:40.775Z,1.1
2022-10-24T15:44:40.513Z,1.1
2022-10-24T15:48:40.561Z,1.4
2022-10-24T15:52:40.462Z,1.2
2022-10-24T15:56:39.633Z,0.7
2022-10-24T16:00:40.719Z,1.48
2022-10-24T16:04:40.520Z,1.45
2022-10-24T16:08:40.459Z,0.93
2022-10-24T16:12:40.513Z,0.8
2022-10-24T16:16:40.567Z,1.08
2022-10-24T16:20:40.792Z,0.93
2022-10-24T16:24:40.485Z,1.08
2022-10-24T16:28:40.477Z,0.85
2022-10-24T16:32:40.320Z,0.95
2022-10-24T16:36:40.551Z,0.88
2022-10-24T16:44:40.467Z,1.27
2022-10-24T16:48:40.503Z,1.08
2022-10-24T16:52:40.525Z,1.58
2022-10-24T16:56:40.451Z,0.6
2022-10-24T17:00:40.673Z,0.7
2022-10-24T17:04:40.468Z,0.75
2022-10-24T17:08:40.627Z,0.88
2022-10-24T17:12:40.987Z,0.77
2022-10-24T17:16:40.661Z,0.82
2022-10-24T17:20:40.569Z,1
2022-10-24T17:24:40.524Z,0.6
2022-10-24T17:28:40.568Z,0.7
2022-10-24T17:32:40.485Z,1.23
2022-10-24T17:36:40.800Z,0.8
2022-10-24T17:40:40.518Z,0.82
2022-10-24T17:44:40.519Z,0.8
2022-10-24T17:48:40.489Z,1.25
2022-10-24T17:52:39.725Z,0.73
2022-10-24T17:56:39.354Z,0.8
2022-10-24T18:00:41.035Z,0.68
2022-10-24T18:04:40.532Z,0.9
2022-10-24T18:08:40.563Z,0.8
2022-10-24T18:12:40.633Z,0.57
2022-10-24T18:16:40.954Z,0.77
2022-10-24T18:20:40.629Z,1.08
2022-10-24T18:24:40.482Z,1.02
2022-10-24T18:28:40.452Z,1
2022-10-24T18:32:40.430Z,0.9
2022-10-24T18:36:40.572Z,0.9
2022-10-24T18:40:40.776Z,0.98
2022-10-24T18:44:40.295Z,1.42
2022-10-24T18:48:40.423Z,1.55
2022-10-24T18:52:40.504Z,1.12
2022-10-24T18:56:40.548Z,1.1
2022-10-24T19:00:40.559Z,1.05
2022-10-24T19:04:40.675Z,1.02
2022-10-24T19:08:40.824Z,0.9
2022-10-24T19:12:40.556Z,1.23
2022-10-24T19:16:40.440Z,1.5
2022-10-24T19:20:40.663Z,1.67
2022-10-24T19:24:40.508Z,1.25
2022-10-24T19:28:40.683Z,1.25
2022-10-24T19:32:40.668Z,1.45
2022-10-24T19:36:39.335Z,1.3
2022-10-24T19:40:40.578Z,1
2022-10-24T19:44:40.710Z,1.5
2022-10-24T19:48:40.894Z,1.6
2022-10-24T19:52:40.572Z,1.2
2022-10-24T19:56:40.500Z,1.35
2022-10-24T20:00:40.697Z,1.67
2022-10-24T20:04:40.315Z,1.75
2022-10-24T20:08:40.041Z,2.28
2022-10-24T20:12:41.008Z,2
2022-10-24T20:16:40.522Z,2.03
2022-10-24T20:20:40.583Z,2
2022-10-24T20:24:40.497Z,2.1
2022-10-24T20:28:40.584Z,2.05
2022-10-24T20:32:40.433Z,2.03
2022-10-24T20:36:40.434Z,2.17
2022-10-24T20:40:40.475Z,2.1
2022-10-24T20:44:40.484Z,2.4
2022-10-24T20:48:40.563Z,2.4
2022-10-24T20:52:40.451Z,2.22
2022-10-24T20:56:42.513Z,2.35
2022-10-24T21:04:40.685Z,2.87
2022-10-24T21:08:40.458Z,3.05
2022-10-24T21:12:43.917Z,2.42
2022-10-24T21:16:40.826Z,3.03
2022-10-24T21:20:40.569Z,2.95
2022-10-24T21:24:40.860Z,2.53
2022-10-24T21:28:40.455Z,2.3
2022-10-24T21:32:40.949Z,2.53
2022-10-24T21:36:40.519Z,2.22
2022-10-24T21:40:40.313Z,2.47
2022-10-24T21:44:40.343Z,3.87
2022-10-24T21:48:40.789Z,2.5
2022-10-24T21:52:40.540Z,2.65
2022-10-24T21:56:40.618Z,3.37
2022-10-24T22:00:40.493Z,2.9
2022-10-24T22:04:40.503Z,3.42
2022-10-24T22:08:40.581Z,3.1
2022-10-24T22:12:40.668Z,3.05
2022-10-24T22:16:40.602Z,3.2
2022-10-24T22:20:41.291Z,2.6
2022-10-24T22:24:40.527Z,3.35
2022-10-24T22:28:40.494Z,2.47
2022-10-24T22:32:40.420Z,3.37
2022-10-24T22:36:40.237Z,3.1
2022-10-24T22:40:40.531Z,3.35
2022-10-24T22:44:39.718Z,3.05
2022-10-24T22:48:40.289Z,4.57
2022-10-24T22:52:40.439Z,3.17
2022-10-24T22:56:40.989Z,3.2
2022-10-24T23:00:40.503Z,3.33
2022-10-24T23:04:40.260Z,3.78
2022-10-24T23:08:40.535Z,3.03
2022-10-24T23:12:40.558Z,4.45
2022-10-24T23:16:40.853Z,2.33
2022-10-24T23:20:40.459Z,3.8
2022-10-24T23:24:40.708Z,3.08
2022-10-24T23:28:40.601Z,3.8
2022-10-24T23:32:40.433Z,3.28
2022-10-24T23:36:40.476Z,6.68
2022-10-24T23:40:40.844Z,3.95
2022-10-24T23:44:40.510Z,3.45
2022-10-24T23:48:40.458Z,3.78
2022-10-24T23:52:40.504Z,3.62
2022-10-24T23:56:40.375Z,3.3
